Time;durP1;ratioP1;P1;durP2;ratioP2;P2;SDS_P1;SDS_P2;PMS_P1;PMS_P2;Temp;Humidity;BMP_temperature;BMP_pressure;BME280_temperature;BME280_humidity;BME280_pressure;Samples;Min_cycle;Max_cycle;Signal;HPM_P1;HPM_P2
2022/09/01 00:01:28;;;;;;;7.00;6.30;;;;;;;18.23;70.24;99562.50;4959180;28;20501;-77
2022/09/01 00:03:55;;;;;;;6.67;6.03;;;;;;;18.23;70.31;99561.69;4961670;28;20435;-77
2022/09/01 00:06:22;;;;;;;6.67;6.07;;;;;;;18.22;69.90;99560.00;4965885;28;20876;-77
2022/09/01 00:08:52;;;;;;;8.83;7.30;;;;;;;18.18;69.80;99548.81;4965134;28;20444;-77
2022/09/01 00:11:18;;;;;;;7.27;6.57;;;;;;;18.14;69.75;99556.22;4965005;28;20445;-78
2022/09/01 00:13:44;;;;;;;7.33;6.63;;;;;;;18.06;70.07;99555.31;4966940;28;20522;-77
2022/09/01 00:16:12;;;;;;;6.30;5.70;;;;;;;18.01;70.04;99555.75;4959902;28;20513;-77
2022/09/01 00:18:40;;;;;;;6.83;6.13;;;;;;;17.99;69.92;99555.06;4962879;28;20546;-77
2022/09/01 00:21:08;;;;;;;7.17;5.80;;;;;;;18.00;69.67;99562.03;4956919;28;20466;-77
2022/09/01 00:23:33;;;;;;;9.63;6.97;;;;;;;17.96;69.74;99559.81;4960083;28;20976;-77
2022/09/01 00:25:59;;;;;;;9.00;6.77;;;;;;;17.89;69.88;99559.56;4965445;28;20447;-77
2022/09/01 00:28:24;;;;;;;8.63;7.20;;;;;;;17.84;69.84;99561.81;4967643;28;20305;-77
2022/09/01 00:30:49;;;;;;;7.70;6.23;;;;;;;17.79;69.99;99564.06;4981233;28;20560;-77
2022/09/01 00:33:15;;;;;;;6.83;6.13;;;;;;;17.74;70.09;99561.84;4968175;28;20206;-77
2022/09/01 00:35:40;;;;;;;7.00;5.90;;;;;;;17.77;70.20;99556.25;4968540;28;20265;-77
2022/09/01 00:38:06;;;;;;;7.20;6.50;;;;;;;17.80;70.06;99561.28;4967188;28;20192;-77
2022/09/01 00:40:32;;;;;;;7.13;6.30;;;;;;;17.82;69.94;99561.13;4965585;28;20762;-77
2022/09/01 00:42:59;;;;;;;10.68;7.05;;;;;;;17.82;69.64;99563.78;4962713;28;20702;-77
2022/09/01 00:45:25;;;;;;;6.50;5.90;;;;;;;17.79;69.92;99558.75;4969084;28;20726;-77
2022/09/01 00:47:50;;;;;;;9.60;7.40;;;;;;;17.80;69.83;99566.59;4966153;28;20435;-77
2022/09/01 00:50:17;;;;;;;8.87;6.80;;;;;;;17.82;69.60;99555.81;4969792;28;20578;-77
2022/09/01 00:52:52;;;;;;;10.75;6.65;;;;;;;17.82;69.84;99554.03;4967930;28;20194;-77
2022/09/01 00:55:23;;;;;;;8.73;6.33;;;;;;;17.83;69.74;99558.34;4970267;28;20697;-77
2022/09/01 00:57:49;;;;;;;7.25;6.55;;;;;;;17.85;69.72;99552.91;4963336;23;20502;-78
2022/09/01 01:00:21;;;;;;;7.63;6.97;;;;;;;17.85;69.61;99547.59;4944474;28;20215;-77
2022/09/01 01:02:48;;;;;;;8.20;6.93;;;;;;;17.81;69.90;99559.47;4946437;28;20190;-77
2022/09/01 01:05:14;;;;;;;7.65;6.63;;;;;;;17.78;70.00;99543.78;4937277;29;20217;-76
2022/09/01 01:07:43;;;;;;;6.22;5.63;;;;;;;17.77;70.05;99556.25;4955419;28;20583;-76
2022/09/01 01:10:15;;;;;;;8.80;7.13;;;;;;;17.75;70.18;99544.09;4952564;28;20198;-77
2022/09/01 01:12:55;;;;;;;8.40;6.53;;;;;;;17.67;70.13;99547.47;4959268;28;21724;-76
2022/09/01 01:15:21;;;;;;;6.93;5.85;;;;;;;17.57;70.32;99549.28;4930447;28;20542;-76
2022/09/01 01:17:46;;;;;;;7.07;6.10;;;;;;;17.49;70.66;99547.34;4945496;28;20206;-77
2022/09/01 01:23:14;;;;;;;6.10;5.13;;;;;;;17.35;70.86;99556.59;4941293;28;20175;-78
2022/09/01 01:25:49;;;;;;;7.65;5.75;;;;;;;17.31;71.03;99544.63;4949663;28;20183;-75
2022/09/01 01:28:18;;;;;;;6.72;6.13;;;;;;;17.30;70.98;99548.22;4961132;28;20262;-77
2022/09/01 01:31:05;;;;;;;9.10;6.50;;;;;;;17.28;71.07;99544.88;4962935;28;20173;-76
2022/09/01 01:33:40;;;;;;;11.30;7.10;;;;;;;17.32;70.98;99548.94;4947922;28;20222;-75
2022/09/01 01:36:09;;;;;;;10.65;8.20;;;;;;;17.36;71.01;99534.41;4962047;28;20497;-75
2022/09/01 01:38:34;;;;;;;8.52;7.50;;;;;;;17.40;70.83;99554.38;4947956;28;20241;-75
2022/09/01 01:41:02;;;;;;;9.50;7.93;;;;;;;17.43;70.94;99550.59;4948558;28;20211;-75
2022/09/01 01:43:44;;;;;;;8.93;7.82;;;;;;;17.45;70.80;99546.81;4948718;28;20174;-76
2022/09/01 01:46:13;;;;;;;15.68;13.98;;;;;;;17.45;71.31;99552.13;4945193;28;20908;-75
2022/09/01 01:48:41;;;;;;;13.90;11.57;;;;;;;17.41;71.57;99545.41;4947081;28;20182;-75
2022/09/01 01:51:09;;;;;;;14.90;11.90;;;;;;;17.42;71.51;99547.09;4948295;28;20228;-75
2022/09/01 01:53:35;;;;;;;19.83;15.13;;;;;;;17.43;71.95;99543.44;4940571;28;20603;-77
2022/09/01 01:56:01;;;;;;;16.43;13.80;;;;;;;17.42;72.38;99540.97;4964407;28;20889;-78
2022/09/01 01:58:32;;;;;;;20.67;16.08;;;;;;;17.42;72.50;99544.44;4948824;28;20176;-75
2022/09/01 02:00:58;;;;;;;18.23;15.35;;;;;;;17.44;72.69;99545.16;4958851;28;20212;-75
2022/09/01 02:03:37;;;;;;;20.37;14.03;;;;;;;17.40;73.11;99554.38;4946657;28;20640;-75
2022/09/01 02:06:09;;;;;;;18.30;13.23;;;;;;;17.41;73.01;99552.53;4959967;28;20504;-76
2022/09/01 02:08:38;;;;;;;14.15;11.45;;;;;;;17.43;73.02;99548.75;4954953;28;20193;-75
2022/09/01 02:11:06;;;;;;;15.65;12.85;;;;;;;17.47;72.98;99551.97;4948639;28;20240;-75
2022/09/01 02:13:32;;;;;;;18.70;14.50;;;;;;;17.50;73.11;99551.69;4945127;28;20749;-75
2022/09/01 02:16:27;;;;;;;15.77;14.18;;;;;;;17.53;73.13;99550.59;4933114;28;20196;-75
2022/09/01 02:18:55;;;;;;;18.60;14.95;;;;;;;17.54;73.04;99552.25;4947783;28;20189;-77
2022/09/01 02:21:23;;;;;;;22.30;14.32;;;;;;;17.57;73.29;99551.94;4948408;28;20207;-77
2022/09/01 02:23:59;;;;;;;21.17;17.73;;;;;;;17.56;73.41;99543.16;4943213;28;20180;-76
2022/09/01 02:26:34;;;;;;;23.85;18.17;;;;;;;17.56;73.59;99539.66;4949003;28;20195;-79
2022/09/01 02:29:04;;;;;;;26.23;18.98;;;;;;;17.57;73.64;99546.63;4963006;28;20211;-77
2022/09/01 02:31:57;;;;;;;42.08;22.42;;;;;;;17.51;74.78;99541.91;4953074;28;20274;-78
2022/09/01 02:34:27;;;;;;;31.25;21.98;;;;;;;17.43;74.88;99542.63;4949302;28;20203;-79
2022/09/01 02:36:54;;;;;;;35.17;22.95;;;;;;;17.37;75.16;99541.38;4946698;28;20251;-78
2022/09/01 02:39:28;;;;;;;32.97;23.73;;;;;;;17.33;75.65;99542.63;4959700;28;20175;-78
2022/09/01 02:41:55;;;;;;;33.40;23.13;;;;;;;17.31;75.94;99539.31;4945030;28;20727;-79
2022/09/01 02:44:27;;;;;;;38.72;25.30;;;;;;;17.24;76.84;99535.53;4943385;28;20209;-76
2022/09/01 02:46:53;;;;;;;28.35;22.83;;;;;;;17.20;76.87;99536.78;4962460;28;20210;-77
2022/09/01 02:49:27;;;;;;;38.30;24.88;;;;;;;17.17;77.08;99529.09;4944996;28;20187;-76
2022/09/01 02:51:56;;;;;;;34.78;23.00;;;;;;;17.10;77.27;99536.81;4945084;28;20649;-76
2022/09/01 02:54:24;;;;;;;34.10;20.80;;;;;;;16.98;77.83;99544.06;4934372;28;20261;-75
2022/09/01 02:56:53;;;;;;;47.17;23.40;;;;;;;16.89;78.06;99546.72;4943157;28;20581;-77
2022/09/01 02:59:21;;;;;;;37.15;20.30;;;;;;;16.80;78.46;99551.91;4962449;28;20183;-76
2022/09/01 03:01:49;;;;;;;31.60;20.95;;;;;;;16.76;78.62;99552.28;4947669;28;20201;-76
2022/09/01 03:04:16;;;;;;;49.92;27.48;;;;;;;16.78;78.79;99553.00;4952312;28;20476;-78
2022/09/01 03:06:42;;;;;;;31.85;23.08;;;;;;;16.72;78.84;99557.03;4936736;28;20465;-77
2022/09/01 03:09:13;;;;;;;31.48;21.92;;;;;;;16.68;78.98;99562.72;4956693;28;20275;-76
2022/09/01 03:11:42;;;;;;;23.27;19.92;;;;;;;16.67;79.02;99556.59;4961130;28;20709;-76
2022/09/01 03:14:07;;;;;;;25.50;19.88;;;;;;;16.68;79.03;99558.25;4961497;28;20217;-78
2022/09/01 03:16:34;;;;;;;23.37;18.37;;;;;;;16.71;79.05;99544.72;4963059;28;20272;-78
2022/09/01 03:19:02;;;;;;;21.27;18.67;;;;;;;16.75;78.74;99543.47;4945359;28;20764;-76
2022/09/01 03:21:28;;;;;;;20.70;16.40;;;;;;;16.80;78.42;99546.59;4938561;28;20237;-76
2022/09/01 03:23:54;;;;;;;22.97;17.40;;;;;;;16.85;78.25;99554.13;4945441;28;20378;-76
2022/09/01 03:26:21;;;;;;;19.90;17.80;;;;;;;16.82;78.04;99551.75;4943955;28;20450;-76
2022/09/01 03:28:49;;;;;;;21.50;17.35;;;;;;;16.80;78.07;99545.75;4940899;28;20194;-78
2022/09/01 03:31:17;;;;;;;20.38;16.17;;;;;;;16.79;77.98;99542.25;4948747;28;20185;-76
2022/09/01 03:33:42;;;;;;;21.52;19.20;;;;;;;16.81;77.86;99547.41;4957204;28;20438;-76
2022/09/01 03:36:18;;;;;;;18.50;16.10;;;;;;;16.76;77.82;99544.31;4940967;28;20243;-78
2022/09/01 03:38:49;;;;;;;18.67;16.55;;;;;;;16.66;77.97;99543.47;4958067;28;20230;-77
2022/09/01 03:41:20;;;;;;;18.15;16.30;;;;;;;16.57;77.96;99545.97;4958262;28;20210;-75
2022/09/01 03:43:50;;;;;;;18.50;15.70;;;;;;;16.53;78.11;99549.06;4941516;28;20199;-77
2022/09/01 03:46:20;;;;;;;19.05;14.55;;;;;;;16.51;78.02;99548.34;4944886;28;20238;-76
2022/09/01 03:48:49;;;;;;;17.90;15.98;;;;;;;16.51;77.94;99546.53;4947930;28;20187;-76
2022/09/01 03:51:16;;;;;;;18.83;14.93;;;;;;;16.55;77.90;99547.06;4947158;28;20273;-77
2022/09/01 03:53:46;;;;;;;29.45;22.27;;;;;;;16.56;78.03;99544.31;4949374;28;20221;-78
2022/09/01 03:56:15;;;;;;;22.25;17.33;;;;;;;16.57;77.95;99545.13;4952457;28;20273;-76
2022/09/01 03:58:45;;;;;;;19.23;16.70;;;;;;;16.60;77.73;99544.84;4950196;28;20209;-79
2022/09/01 04:01:16;;;;;;;22.83;18.17;;;;;;;16.62;77.74;99544.72;4943246;29;20613;-76
2022/09/01 04:03:47;;;;;;;20.23;17.73;;;;;;;16.56;77.77;99533.69;4959170;28;20182;-78
2022/09/01 04:06:20;;;;;;;24.60;17.45;;;;;;;16.59;77.76;99541.38;4937981;28;20213;-78
2022/09/01 04:08:47;;;;;;;25.35;19.45;;;;;;;16.63;77.73;99539.28;4956405;28;20178;-76
2022/09/01 04:11:17;;;;;;;26.83;20.83;;;;;;;16.62;77.86;99537.59;4943658;28;20218;-78
2022/09/01 04:14:01;;;;;;;32.85;21.77;;;;;;;16.61;77.94;99541.25;4962237;28;20181;-77
2022/09/01 04:19:24;;;;;;;43.30;24.60;;;;;;;16.65;78.19;99537.31;4960560;28;20829;-76
2022/09/01 04:21:55;;;;;;;32.42;22.73;;;;;;;16.66;78.04;99541.66;4954689;28;20237;-77
2022/09/01 04:24:23;;;;;;;40.88;25.85;;;;;;;16.69;78.21;99548.47;4944009;28;20650;-76
2022/09/01 04:26:50;;;;;;;37.45;26.75;;;;;;;16.72;78.36;99548.22;4941823;28;20665;-78
2022/09/01 04:29:18;;;;;;;41.28;26.80;;;;;;;16.75;78.13;99553.25;4953183;28;20893;-77
2022/09/01 04:31:47;;;;;;;40.95;25.95;;;;;;;16.80;78.26;99551.91;4958846;28;20177;-78
2022/09/01 04:34:13;;;;;;;32.38;23.23;;;;;;;16.88;78.04;99543.25;4944682;28;20171;-77
2022/09/01 04:36:43;;;;;;;34.67;23.92;;;;;;;16.95;77.88;99548.81;4949882;28;20681;-77
2022/09/01 04:39:10;;;;;;;47.85;28.35;;;;;;;17.01;77.86;99546.47;4945992;28;20484;-77
2022/09/01 04:41:38;;;;;;;32.75;25.63;;;;;;;17.07;77.72;99552.19;4957560;28;20201;-77
2022/09/01 04:44:05;;;;;;;42.88;27.77;;;;;;;17.15;77.70;99539.06;4944272;28;20882;-77
2022/09/01 04:46:41;;;;;;;51.13;28.35;;;;;;;17.19;77.57;99543.06;4955189;28;20624;-76
2022/09/01 04:49:18;;;;;;;34.15;26.67;;;;;;;17.22;77.70;99543.63;4928688;28;20187;-76
2022/09/01 04:51:46;;;;;;;36.33;25.95;;;;;;;17.27;77.47;99550.34;4955745;28;20245;-76
2022/09/01 04:54:13;;;;;;;39.72;29.38;;;;;;;17.33;77.55;99547.94;4946971;28;20220;-75
2022/09/01 04:56:49;;;;;;;34.60;27.30;;;;;;;17.38;77.39;99551.00;4945899;28;20309;-76
2022/09/01 04:59:19;;;;;;;36.83;26.60;;;;;;;17.40;77.38;99548.22;4940715;28;20185;-76
2022/09/01 05:01:46;;;;;;;38.42;27.27;;;;;;;17.43;77.40;99550.59;4958174;28;20202;-76
2022/09/01 05:04:20;;;;;;;31.08;23.67;;;;;;;17.44;77.59;99550.47;4962210;28;20577;-77
2022/09/01 05:06:49;;;;;;;29.73;23.05;;;;;;;17.44;77.19;99552.25;4945422;28;20226;-77
2022/09/01 05:09:18;;;;;;;35.72;25.77;;;;;;;17.40;77.45;99554.38;4944675;28;20252;-77
2022/09/01 05:12:15;;;;;;;29.92;22.70;;;;;;;17.40;77.41;99545.56;4939058;28;20222;-77
2022/09/01 05:14:47;;;;;;;33.35;22.35;;;;;;;17.39;77.20;99558.00;4960044;28;20216;-76
2022/09/01 05:17:16;;;;;;;26.90;22.25;;;;;;;17.31;77.32;99549.94;4959642;28;20209;-76
2022/09/01 05:19:46;;;;;;;27.55;22.50;;;;;;;17.20;77.51;99552.72;4950557;28;20190;-76
2022/09/01 05:22:20;;;;;;;26.60;22.63;;;;;;;17.18;77.82;99549.38;4942665;28;20217;-76
2022/09/01 05:24:52;;;;;;;29.50;22.35;;;;;;;17.16;77.78;99556.63;4943910;29;20806;-77
2022/09/01 05:27:17;;;;;;;28.57;20.60;;;;;;;17.14;77.69;99553.28;4955365;28;20237;-76
2022/09/01 05:29:45;;;;;;;26.17;23.30;;;;;;;17.13;77.80;99552.44;4961453;28;20659;-76
2022/09/01 05:32:12;;;;;;;31.25;23.38;;;;;;;17.16;77.69;99560.13;4947260;28;20240;-77
2022/09/01 05:34:41;;;;;;;29.67;23.97;;;;;;;17.19;77.58;99557.19;4968347;28;20181;-76
2022/09/01 05:37:08;;;;;;;31.60;22.33;;;;;;;17.25;77.63;99555.78;4964764;28;20325;-76
2022/09/01 05:39:36;;;;;;;27.02;20.83;;;;;;;17.31;77.56;99563.19;4948087;29;20177;-76
2022/09/01 05:42:06;;;;;;;28.73;21.10;;;;;;;17.39;77.22;99563.31;4943193;28;20195;-76
2022/09/01 05:44:32;;;;;;;32.08;22.70;;;;;;;17.45;76.98;99562.75;4963988;28;20236;-76
2022/09/01 05:46:58;;;;;;;24.17;20.63;;;;;;;17.52;76.74;99578.09;4948705;28;20209;-76
2022/09/01 05:49:27;;;;;;;26.10;19.38;;;;;;;17.59;76.65;99574.72;4947019;28;20191;-77
2022/09/01 05:51:56;;;;;;;25.05;19.90;;;;;;;17.65;76.38;99574.16;4963180;28;20597;-76
2022/09/01 05:54:26;;;;;;;25.80;19.98;;;;;;;17.74;76.11;99583.09;4949178;28;20196;-77
2022/09/01 05:56:53;;;;;;;26.85;20.90;;;;;;;17.87;75.60;99582.78;4943805;28;20467;-77
2022/09/01 05:59:22;;;;;;;26.15;20.95;;;;;;;18.03;74.81;99584.84;4936382;28;20648;-77
2022/09/01 06:01:48;;;;;;;22.80;19.40;;;;;;;18.16;74.43;99576.53;4953681;28;20267;-77
2022/09/01 06:04:14;;;;;;;23.40;19.43;;;;;;;18.26;74.04;99583.47;4952597;28;20222;-77
2022/09/01 06:06:50;;;;;;;25.03;18.17;;;;;;;18.42;73.80;99579.34;4935736;28;20455;-78
2022/09/01 06:09:17;;;;;;;23.87;19.30;;;;;;;18.67;72.85;99577.78;4961198;28;20453;-77
2022/09/01 06:11:50;;;;;;;27.08;19.90;;;;;;;19.13;71.57;99581.25;4952318;28;20439;-78
2022/09/01 06:14:17;;;;;;;25.90;18.73;;;;;;;19.66;70.19;99575.03;4960377;28;20192;-77
2022/09/01 06:16:46;;;;;;;21.27;17.27;;;;;;;20.23;68.52;99571.84;4947673;28;20469;-76
2022/09/01 06:19:12;;;;;;;21.13;17.00;;;;;;;20.80;66.66;99571.19;4948772;28;20452;-78
2022/09/01 06:21:43;;;;;;;19.10;14.93;;;;;;;21.25;65.22;99570.69;4944179;28;20556;-77
2022/09/01 06:24:08;;;;;;;20.37;16.20;;;;;;;21.65;63.73;99577.88;4946854;28;20591;-77
2022/09/01 06:26:37;;;;;;;18.60;16.67;;;;;;;21.74;62.54;99575.19;4947187;28;20458;-77
2022/09/01 06:29:08;;;;;;;21.47;15.70;;;;;;;21.60;62.29;99580.25;4946587;28;20814;-78
2022/09/01 06:31:38;;;;;;;19.23;17.13;;;;;;;21.30;62.33;99575.56;4959403;28;20821;-77
2022/09/01 06:34:17;;;;;;;21.53;17.00;;;;;;;21.00;63.28;99578.72;4947578;28;20412;-78
2022/09/01 06:36:44;;;;;;;19.90;15.93;;;;;;;20.81;63.56;99583.53;4942809;28;20467;-77
2022/09/01 06:39:18;;;;;;;29.40;18.33;;;;;;;20.65;64.01;99584.31;4958381;28;20420;-78
2022/09/01 06:41:48;;;;;;;16.70;14.93;;;;;;;20.49;64.22;99585.06;4956904;28;21207;-77
2022/09/01 06:44:21;;;;;;;20.10;16.73;;;;;;;20.30;64.57;99581.66;4941519;28;20460;-77
2022/09/01 06:46:50;;;;;;;20.07;16.87;;;;;;;20.16;64.75;99586.78;4935409;28;20460;-77
2022/09/01 06:49:20;;;;;;;23.37;18.43;;;;;;;20.02;65.16;99589.06;4959530;28;20485;-78
2022/09/01 06:51:50;;;;;;;22.00;17.90;;;;;;;19.89;65.43;99583.31;4939343;28;20455;-77
2022/09/01 06:54:20;;;;;;;20.20;16.67;;;;;;;19.75;65.96;99583.91;4955144;28;21079;-77
2022/09/01 06:56:48;;;;;;;18.27;15.70;;;;;;;19.69;65.86;99582.72;4937705;28;20475;-77
2022/09/01 06:59:14;;;;;;;22.67;17.63;;;;;;;19.65;65.51;99594.63;4943080;28;20622;-79
2022/09/01 07:01:42;;;;;;;20.40;15.30;;;;;;;19.57;66.02;99589.25;4947286;28;20676;-75
2022/09/01 07:04:20;;;;;;;20.93;17.87;;;;;;;19.54;66.16;99589.56;4938068;28;20529;-77
2022/09/01 07:06:51;;;;;;;18.73;14.50;;;;;;;19.51;65.99;99587.22;4934753;28;20488;-75
2022/09/01 07:09:29;;;;;;;21.10;18.07;;;;;;;19.56;66.35;99587.59;4940042;28;20476;-75
2022/09/01 07:12:22;;;;;;;23.93;17.90;;;;;;;19.38;66.79;99591.09;4940467;28;20869;-74
2022/09/01 07:14:48;;;;;;;22.07;16.73;;;;;;;19.30;66.88;99591.03;4941517;28;20469;-74
2022/09/01 07:17:14;;;;;;;19.33;16.90;;;;;;;19.24;66.90;99597.81;4939079;28;20511;-75
2022/09/01 07:19:41;;;;;;;16.10;14.50;;;;;;;19.12;66.88;99603.53;4941421;28;20223;-74
2022/09/01 07:22:11;;;;;;;19.90;16.40;;;;;;;19.01;67.70;99599.28;4935025;28;20866;-77
2022/09/01 07:24:47;;;;;;;16.77;15.00;;;;;;;19.07;67.85;99596.00;4945151;28;20682;-77
2022/09/01 07:27:33;;;;;;;17.33;15.53;;;;;;;19.74;66.21;99595.56;4935671;28;20511;-74
2022/09/01 07:29:59;;;;;;;15.83;14.23;;;;;;;20.65;63.80;99592.34;4938327;28;20921;-75
2022/09/01 07:32:25;;;;;;;15.33;13.37;;;;;;;21.47;61.05;99590.63;4939355;28;20177;-75
2022/09/01 07:34:51;;;;;;;16.27;12.97;;;;;;;22.16;59.25;99580.25;4955922;28;20476;-75
2022/09/01 07:37:17;;;;;;;17.47;13.90;;;;;;;22.61;58.02;99583.28;4936057;28;20297;-74
2022/09/01 07:39:45;;;;;;;15.60;14.00;;;;;;;23.14;56.68;99576.22;4949501;28;20461;-75
2022/09/01 07:42:29;;;;;;;15.20;12.87;;;;;;;23.30;55.56;99583.31;4953173;28;20510;-74
2022/09/01 07:45:22;;;;;;;12.10;10.70;;;;;;;23.45;55.18;99586.88;4913299;29;20426;-75
2022/09/01 07:48:02;;;;;;;19.93;13.80;;;;;;;;;;4952241;28;20479;-75
2022/09/01 07:50:29;;;;;;;14.17;12.70;;;;;;;24.17;52.85;99578.28;4951155;28;20452;-74
2022/09/01 07:52:55;;;;;;;13.70;11.13;;;;;;;24.37;52.14;99575.00;4937744;28;20488;-74
2022/09/01 07:55:20;;;;;;;12.70;11.40;;;;;;;24.50;51.46;99581.41;4937123;28;20422;-75
2022/09/01 07:57:46;;;;;;;12.47;11.27;;;;;;;24.84;50.59;99579.91;4940329;28;20227;-74
2022/09/01 08:00:15;;;;;;;13.80;12.17;;;;;;;25.12;49.09;99579.16;4940615;28;20235;-74
2022/09/01 08:02:45;;;;;;;14.57;9.87;;;;;;;25.49;48.43;99574.50;4954493;28;20446;-75
2022/09/01 08:05:16;;;;;;;11.97;10.60;;;;;;;25.83;46.46;99574.59;4938145;28;20415;-75
2022/09/01 08:07:42;;;;;;;11.23;10.13;;;;;;;25.96;46.37;99581.91;4939573;28;20440;-74
2022/09/01 08:10:08;;;;;;;11.90;9.27;;;;;;;26.31;45.77;99578.38;4935664;28;20521;-75
2022/09/01 08:12:37;;;;;;;9.77;8.77;;;;;;;26.60;44.85;99578.09;4935329;28;20447;-75
2022/09/01 08:15:05;;;;;;;11.73;10.00;;;;;;;26.87;44.20;99581.69;4954033;28;20454;-75
2022/09/01 08:17:31;;;;;;;11.57;9.00;;;;;;;27.01;43.82;99581.72;4938588;28;20470;-75
2022/09/01 08:20:00;;;;;;;11.80;10.23;;;;;;;27.23;43.33;99577.81;4926030;28;20824;-75
2022/09/01 08:22:44;;;;;;;9.50;8.50;;;;;;;27.29;42.63;99581.56;4928637;28;20444;-75
2022/09/01 08:25:21;;;;;;;9.60;7.90;;;;;;;27.06;42.50;99574.69;4938995;28;20458;-75
2022/09/01 08:27:47;;;;;;;10.67;9.60;;;;;;;27.27;42.45;99572.84;4937986;28;20452;-75
2022/09/01 08:30:12;;;;;;;7.70;6.93;;;;;;;27.47;41.72;99575.56;4954582;28;20456;-75
2022/09/01 08:32:42;;;;;;;8.93;8.03;;;;;;;27.54;41.29;99574.50;4950606;28;20200;-75
2022/09/01 08:35:10;;;;;;;8.35;7.57;;;;;;;27.76;40.41;99571.56;4952986;28;20579;-75
2022/09/01 08:37:37;;;;;;;8.80;7.10;;;;;;;27.88;40.32;99577.19;4940410;28;20218;-75
2022/09/01 08:40:05;;;;;;;9.23;8.33;;;;;;;27.85;40.05;99577.63;4954863;28;20513;-75
2022/09/01 08:42:58;;;;;;;7.93;7.13;;;;;;;27.62;40.13;99575.31;4936808;28;20528;-75
2022/09/01 08:45:32;;;;;;;9.57;7.93;;;;;;;27.61;40.06;99576.38;4940344;28;20695;-75
2022/09/01 08:48:12;;;;;;;9.80;8.90;;;;;;;27.61;40.27;99573.69;4934288;28;20466;-75
2022/09/01 08:50:39;;;;;;;12.97;8.93;;;;;;;27.49;40.78;99579.72;4952068;28;20456;-75
2022/09/01 08:53:42;;;;;;;9.57;8.67;;;;;;;27.20;41.20;99580.13;4937083;28;20444;-75
2022/09/01 08:56:10;;;;;;;9.60;7.73;;;;;;;27.09;41.87;99571.56;4952763;28;20626;-74
2022/09/01 08:58:35;;;;;;;10.20;7.60;;;;;;;27.02;42.46;99586.91;4945898;28;20961;-75
2022/09/01 09:01:38;;;;;;;8.43;7.63;;;;;;;26.88;42.90;99583.34;4925597;28;20577;-75
2022/09/01 09:04:46;;;;;;;9.20;8.30;;;;;;;26.70;42.82;99570.44;4934261;28;20487;-75
2022/09/01 09:07:22;;;;;;;12.50;7.60;;;;;;;26.43;43.03;99574.06;4934994;28;20227;-75
2022/09/01 09:10:09;;;;;;;8.83;7.40;;;;;;;26.24;44.16;99579.16;4942239;28;20436;-74
2022/09/01 09:12:50;;;;;;;7.50;6.80;;;;;;;26.02;44.44;99575.72;4935451;28;20817;-73
2022/09/01 09:15:38;;;;;;;7.60;6.90;;;;;;;25.76;44.73;99587.16;4935338;28;20528;-74
2022/09/01 09:18:12;;;;;;;7.60;6.90;;;;;;;25.63;45.06;99576.28;4942507;28;20459;-74
2022/09/01 09:20:38;;;;;;;7.90;6.80;;;;;;;25.61;45.38;99575.66;4946712;28;20546;-74
2022/09/01 09:23:19;;;;;;;7.53;6.83;;;;;;;25.61;45.28;99573.78;4938014;28;20577;-74
2022/09/01 09:25:45;;;;;;;6.80;6.20;;;;;;;25.49;45.69;99570.00;4940992;28;20224;-74
2022/09/01 09:28:10;;;;;;;9.87;7.23;;;;;;;25.49;45.58;99574.50;4939959;28;20484;-74
2022/09/01 09:30:35;;;;;;;7.70;6.90;;;;;;;25.51;45.65;99567.09;4944652;28;20207;-73
2022/09/01 09:33:09;;;;;;;7.80;6.40;;;;;;;25.52;45.41;99568.75;4945402;28;20246;-73
2022/09/01 09:35:40;;;;;;;7.40;6.70;;;;;;;25.45;45.83;99563.31;4945339;28;20585;-74
2022/09/01 09:38:18;;;;;;;7.73;6.47;;;;;;;25.41;45.50;99561.22;4945421;28;20504;-74
2022/09/01 09:41:18;;;;;;;6.70;6.10;;;;;;;25.46;45.26;99559.59;4946377;28;20477;-74
2022/09/01 09:44:21;;;;;;;7.50;6.60;;;;;;;25.51;45.62;99554.47;4936441;28;20499;-74
2022/09/01 09:46:47;;;;;;;6.80;6.20;;;;;;;25.55;45.51;99553.06;4937984;28;20542;-73
2022/09/01 09:49:22;;;;;;;7.23;6.10;;;;;;;25.59;45.52;99550.81;4944669;28;20921;-74
2022/09/01 09:51:53;;;;;;;8.20;6.30;;;;;;;25.63;44.85;99549.41;4943795;28;20432;-74
2022/09/01 09:54:32;;;;;;;7.73;6.37;;;;;;;25.61;44.58;99541.50;4945320;28;20947;-74
2022/09/01 09:57:12;;;;;;;6.93;6.30;;;;;;;25.66;44.54;99543.63;4936314;28;20540;-74
2022/09/01 09:59:42;;;;;;;6.77;5.93;;;;;;;25.70;44.69;99544.88;4941268;28;20632;-74
2022/09/01 10:02:34;;;;;;;6.37;5.20;;;;;;;25.79;44.73;99538.31;4937962;28;20803;-74
2022/09/01 10:05:21;;;;;;;6.47;5.87;;;;;;;25.92;44.27;99537.56;4943242;28;20957;-74
2022/09/01 10:07:46;;;;;;;5.83;5.23;;;;;;;26.12;43.68;99532.31;4941353;28;20574;-74
2022/09/01 10:10:29;;;;;;;6.43;5.60;;;;;;;26.17;43.34;99535.22;4940282;28;20567;-74
2022/09/01 10:12:57;;;;;;;6.10;5.60;;;;;;;26.16;43.65;99536.25;4940825;28;20210;-74
2022/09/01 10:15:27;;;;;;;6.27;5.70;;;;;;;26.14;43.19;99524.00;4939163;28;20599;-74
2022/09/01 10:17:57;;;;;;;5.80;5.30;;;;;;;26.08;43.64;99528.34;4937889;28;20986;-74
2022/09/01 10:20:25;;;;;;;7.00;5.90;;;;;;;26.12;43.68;99520.72;4938782;28;20496;-73
2022/09/01 10:22:51;;;;;;;5.53;4.90;;;;;;;26.16;43.60;99524.66;4942105;28;20998;-74
2022/09/01 10:25:24;;;;;;;5.20;4.80;;;;;;;26.12;43.30;99518.84;4937277;28;20453;-74
2022/09/01 10:27:57;;;;;;;4.40;4.00;;;;;;;26.26;43.14;99506.25;4936187;28;20483;-75
2022/09/01 10:30:23;;;;;;;4.90;4.50;;;;;;;26.48;42.47;99509.63;4939893;28;20457;-73
2022/09/01 10:32:53;;;;;;;4.10;3.80;;;;;;;26.62;42.26;99500.56;4936921;28;20466;-75
2022/09/01 10:35:31;;;;;;;5.60;5.10;;;;;;;26.74;42.00;99508.09;4942924;28;20470;-74
2022/09/01 10:38:01;;;;;;;4.37;3.97;;;;;;;26.81;42.27;99501.63;4935523;28;20465;-74
2022/09/01 10:40:29;;;;;;;4.40;4.00;;;;;;;26.92;41.58;99497.50;4942123;28;20496;-74
2022/09/01 10:43:20;;;;;;;5.10;4.70;;;;;;;26.99;41.31;99490.25;4938405;28;20531;-74
2022/09/01 10:45:46;;;;;;;5.00;4.63;;;;;;;26.96;41.13;99479.91;4943664;28;20483;-74
2022/09/01 10:48:18;;;;;;;5.63;5.13;;;;;;;26.96;41.54;99484.47;4941021;28;21038;-76
2022/09/01 10:50:46;;;;;;;5.73;4.90;;;;;;;26.99;41.57;99484.03;4940226;28;20471;-74
2022/09/01 10:53:33;;;;;;;4.40;4.00;;;;;;;27.12;40.92;99486.75;4941828;28;20468;-74
2022/09/01 10:56:04;;;;;;;6.03;4.97;;;;;;;27.26;41.21;99483.03;4940073;28;20509;-75
2022/09/01 10:58:45;;;;;;;5.63;5.13;;;;;;;27.30;40.60;99481.56;4937550;28;20505;-74
2022/09/01 11:01:11;;;;;;;5.43;4.93;;;;;;;27.26;40.56;99479.50;4938665;28;20585;-74
2022/09/01 11:03:48;;;;;;;7.00;5.40;;;;;;;27.17;40.76;99473.50;4942946;28;21007;-74
2022/09/01 11:06:42;;;;;;;5.50;5.00;;;;;;;27.14;41.51;99481.97;4926129;28;20735;-74
2022/09/01 11:09:23;;;;;;;4.57;4.20;;;;;;;27.09;41.51;99474.50;4937806;28;20467;-76
2022/09/01 11:12:24;;;;;;;4.77;4.37;;;;;;;27.06;41.27;99474.94;4939502;28;20485;-74
2022/09/01 11:14:52;;;;;;;4.80;4.50;;;;;;;27.08;40.99;99467.44;4940599;28;20901;-74
2022/09/01 11:17:32;;;;;;;4.50;4.20;;;;;;;27.01;40.90;99468.50;4941411;28;20517;-74
2022/09/01 11:20:22;;;;;;;5.03;4.53;;;;;;;26.73;40.82;99469.50;4937906;28;20471;-74
2022/09/01 11:23:05;;;;;;;5.50;5.10;;;;;;;26.72;41.59;99467.03;4938558;28;20695;-74
2022/09/01 11:25:42;;;;;;;4.33;4.00;;;;;;;26.77;41.51;99456.47;4942242;28;20504;-75
2022/09/01 11:28:13;;;;;;;4.80;4.43;;;;;;;26.75;41.87;99453.97;4939934;28;20495;-75
2022/09/01 11:30:49;;;;;;;4.30;3.90;;;;;;;26.77;42.13;99459.16;4933292;28;20458;-76
2022/09/01 11:33:14;;;;;;;6.33;4.90;;;;;;;26.73;41.78;99464.13;4941088;28;20481;-75
2022/09/01 11:35:43;;;;;;;5.23;4.70;;;;;;;26.67;41.82;99455.00;4941935;28;20480;-75
2022/09/01 11:38:12;;;;;;;4.57;4.17;;;;;;;26.70;41.41;99456.44;4939574;28;20242;-75
2022/09/01 11:40:38;;;;;;;5.37;4.50;;;;;;;26.78;41.27;99458.13;4940032;28;20506;-75
2022/09/01 11:43:08;;;;;;;4.63;4.23;;;;;;;26.77;40.66;99460.00;4936734;28;20522;-75
2022/09/01 11:45:58;;;;;;;4.23;3.83;;;;;;;26.72;41.10;99453.56;4941295;28;20214;-75
2022/09/01 11:48:25;;;;;;;4.20;3.80;;;;;;;26.77;40.88;99461.84;4940206;28;20497;-74
2022/09/01 11:51:00;;;;;;;4.60;4.20;;;;;;;26.84;41.22;99459.97;4939224;28;20856;-75